createdAt,value
2019-04-06T00:02:22.232Z,13.27
2019-04-06T00:04:51.613Z,19.40
2019-04-06T00:07:20.986Z,20.43
2019-04-06T00:09:50.363Z,24.37
2019-04-06T00:12:19.664Z,22.13
2019-04-06T00:14:49.004Z,14.03
2019-04-06T00:17:18.390Z,18.43
2019-04-06T00:19:47.847Z,18.77
2019-04-06T00:22:17.160Z,16.23
2019-04-06T00:24:46.437Z,18.33
2019-04-06T00:27:15.733Z,19.10
2019-04-06T00:29:45.028Z,18.07
2019-04-06T00:32:27.641Z,18.97
2019-04-06T00:34:57.037Z,20.17
2019-04-06T00:37:26.350Z,15.30
2019-04-06T00:39:55.685Z,13.47
2019-04-06T00:42:24.999Z,19.93
2019-04-06T00:44:54.354Z,18.20
2019-04-06T00:47:24.198Z,15.00
2019-04-06T00:49:53.588Z,19.27
2019-04-06T00:52:23.235Z,18.67
2019-04-06T00:54:52.644Z,19.77
2019-04-06T00:57:21.951Z,20.70
2019-04-06T00:59:51.257Z,17.03
2019-04-06T01:02:20.528Z,17.20
2019-04-06T01:04:49.755Z,20.03
2019-04-06T01:07:19.037Z,20.73
2019-04-06T01:09:48.487Z,19.77
2019-04-06T01:12:17.891Z,19.10
2019-04-06T01:14:47.397Z,19.33
2019-04-06T01:17:16.681Z,16.93
2019-04-06T01:19:45.973Z,22.87
2019-04-06T01:22:15.276Z,20.33
2019-04-06T01:24:44.583Z,20.00
2019-04-06T01:27:13.873Z,18.70
2019-04-06T01:29:43.180Z,23.97
2019-04-06T01:32:12.467Z,25.63
2019-04-06T01:34:41.722Z,25.23
2019-04-06T01:37:11.355Z,26.70
2019-04-06T01:39:40.705Z,24.53
2019-04-06T01:42:10.038Z,23.17
2019-04-06T01:44:39.441Z,27.57
2019-04-06T01:47:08.741Z,29.73
2019-04-06T01:49:38.035Z,29.17
2019-04-06T01:52:07.698Z,27.87
2019-04-06T01:54:36.951Z,21.63
2019-04-06T01:57:06.277Z,18.97
2019-04-06T01:59:35.573Z,16.67
2019-04-06T02:02:12.624Z,17.97
2019-04-06T02:04:41.997Z,23.57
2019-04-06T02:07:11.418Z,18.43
2019-04-06T02:09:40.910Z,19.93
2019-04-06T02:12:10.171Z,27.43
2019-04-06T02:14:39.483Z,23.93
2019-04-06T02:17:08.793Z,23.00
2019-04-06T02:19:38.109Z,23.17
2019-04-06T02:22:07.415Z,27.70
2019-04-06T02:24:36.693Z,26.60
2019-04-06T02:27:06.114Z,27.83
2019-04-06T02:29:35.577Z,30.00
2019-04-06T02:32:32.731Z,25.43
2019-04-06T02:35:30.385Z,28.07
2019-04-06T02:38:17.380Z,30.17
2019-04-06T02:41:10.165Z,24.37
2019-04-06T02:43:39.542Z,18.70
2019-04-06T02:46:08.788Z,16.97
2019-04-06T02:48:38.212Z,17.67
2019-04-06T02:51:07.396Z,13.70
2019-04-06T02:53:36.672Z,18.20
2019-04-06T02:56:05.924Z,22.00
2019-04-06T02:58:35.277Z,21.17
2019-04-06T03:01:04.560Z,17.47
2019-04-06T03:03:33.928Z,17.33
2019-04-06T03:06:03.256Z,23.00
2019-04-06T03:08:32.670Z,19.80
2019-04-06T03:11:01.901Z,22.97
2019-04-06T03:13:31.073Z,21.30
2019-04-06T03:16:00.347Z,13.47
2019-04-06T03:18:29.607Z,15.90
2019-04-06T03:20:58.915Z,20.30
2019-04-06T03:23:28.249Z,15.70
2019-04-06T03:25:57.613Z,15.23
2019-04-06T03:28:26.889Z,15.83
2019-04-06T03:30:56.825Z,20.90
2019-04-06T03:33:26.105Z,22.83
2019-04-06T03:35:55.612Z,21.30
2019-04-06T03:38:24.940Z,18.80
2019-04-06T03:40:54.432Z,23.77
2019-04-06T03:43:23.742Z,22.13
2019-04-06T03:45:53.013Z,19.30
2019-04-06T03:48:22.329Z,18.43
2019-04-06T03:50:51.619Z,21.10
2019-04-06T03:53:20.880Z,21.80
2019-04-06T03:55:50.189Z,23.90
2019-04-06T03:58:19.492Z,28.13
2019-04-06T04:00:49.090Z,24.40
2019-04-06T04:03:18.440Z,19.10
2019-04-06T04:05:47.694Z,22.20
2019-04-06T04:08:17.024Z,17.80
2019-04-06T04:10:47.851Z,18.70
2019-04-06T04:13:17.410Z,15.57
2019-04-06T04:15:46.662Z,24.03
2019-04-06T04:18:15.985Z,24.07
2019-04-06T04:20:45.398Z,22.37
2019-04-06T04:23:14.670Z,21.77
2019-04-06T04:25:44.534Z,25.47
2019-04-06T04:28:13.846Z,28.03
2019-04-06T04:30:43.068Z,24.60
2019-04-06T04:33:12.397Z,24.97
2019-04-06T04:35:41.624Z,25.43
2019-04-06T04:38:11.067Z,26.40
2019-04-06T04:40:40.574Z,26.87
2019-04-06T04:43:09.773Z,24.80
2019-04-06T04:45:39.052Z,19.53
2019-04-06T04:48:08.381Z,24.93
2019-04-06T04:50:37.753Z,21.53
2019-04-06T04:53:07.062Z,25.17
2019-04-06T04:55:36.994Z,21.23
2019-04-06T04:58:06.172Z,18.83
2019-04-06T05:00:35.446Z,21.03
2019-04-06T05:03:04.712Z,23.27
2019-04-06T05:05:34.074Z,17.63
2019-04-06T05:08:03.324Z,24.33
2019-04-06T05:10:32.592Z,31.80
2019-04-06T05:13:01.900Z,29.20
2019-04-06T05:16:21.722Z,35.80
2019-04-06T05:18:50.938Z,37.50
2019-04-06T05:21:20.183Z,36.23
2019-04-06T05:23:49.395Z,33.07
2019-04-06T05:26:18.576Z,33.40
2019-04-06T05:28:47.745Z,33.97
2019-04-06T05:31:17.026Z,24.37
2019-04-06T05:33:46.332Z,22.93
2019-04-06T05:36:15.669Z,28.20
2019-04-06T05:38:44.961Z,27.23
2019-04-06T05:41:14.282Z,19.20
2019-04-06T05:43:43.757Z,22.50
2019-04-06T05:46:12.971Z,17.57
2019-04-06T05:48:42.284Z,20.13
2019-04-06T05:51:11.517Z,16.30
2019-04-06T05:53:40.925Z,17.57
2019-04-06T05:56:10.348Z,13.07
2019-04-06T05:58:40.635Z,16.97
2019-04-06T06:01:11.358Z,17.13
2019-04-06T06:03:41.484Z,16.03
2019-04-06T06:06:12.578Z,13.40
2019-04-06T06:08:41.908Z,26.33
2019-04-06T06:11:11.332Z,28.70
2019-04-06T06:13:40.659Z,35.37
2019-04-06T06:16:11.779Z,24.77
2019-04-06T06:18:40.975Z,37.60
2019-04-06T06:21:10.293Z,37.80
2019-04-06T06:23:39.633Z,40.27
2019-04-06T06:26:08.893Z,36.27
2019-04-06T06:28:38.269Z,37.30
2019-04-06T06:31:07.696Z,41.50
2019-04-06T06:33:37.105Z,36.47
2019-04-06T06:36:06.376Z,31.90
2019-04-06T06:38:35.866Z,38.13
2019-04-06T06:41:05.409Z,36.73
2019-04-06T06:43:34.859Z,33.97
2019-04-06T06:46:04.185Z,32.77
2019-04-06T06:48:33.383Z,35.33
2019-04-06T06:51:02.649Z,33.17
2019-04-06T06:53:31.950Z,34.60
2019-04-06T06:56:01.257Z,34.13
2019-04-06T06:58:30.584Z,28.80
2019-04-06T07:00:59.948Z,35.40
2019-04-06T07:03:29.519Z,35.43
2019-04-06T07:05:58.972Z,30.60
2019-04-06T07:08:28.306Z,35.23
2019-04-06T07:10:57.613Z,35.80
2019-04-06T07:13:26.973Z,36.53
2019-04-06T07:15:56.183Z,31.67
2019-04-06T07:18:25.493Z,29.37
2019-04-06T07:20:55.133Z,36.07
2019-04-06T07:23:24.573Z,37.83
2019-04-06T07:25:58.703Z,36.97
2019-04-06T07:28:36.374Z,26.57
2019-04-06T07:30:56.476Z,25.50
2019-04-06T07:33:25.943Z,33.77
2019-04-06T07:35:55.460Z,33.50
2019-04-06T07:38:24.770Z,36.60
2019-04-06T07:40:54.103Z,40.07
2019-04-06T07:44:42.402Z,35.83
2019-04-06T07:56:32.171Z,32.77
2019-04-06T07:59:01.597Z,33.87
2019-04-06T08:01:31.273Z,25.97
2019-04-06T08:04:00.657Z,20.70
2019-04-06T08:06:30.001Z,37.63
2019-04-06T08:08:59.548Z,35.37
2019-04-06T08:11:29.113Z,32.63
2019-04-06T08:13:58.526Z,33.77
2019-04-06T08:16:28.189Z,30.23
2019-04-06T08:18:57.486Z,30.90
2019-04-06T08:21:26.851Z,37.53
2019-04-06T08:23:56.235Z,34.07
2019-04-06T08:26:25.567Z,33.43
2019-04-06T08:29:01.865Z,39.87
2019-04-06T08:31:25.918Z,36.50
2019-04-06T08:33:55.192Z,38.53
2019-04-06T08:36:24.464Z,35.87
2019-04-06T08:38:53.897Z,29.00
2019-04-06T08:41:23.356Z,31.37
2019-04-06T08:43:52.651Z,40.07
2019-04-06T08:46:21.967Z,34.10
2019-04-06T08:48:51.283Z,37.70
2019-04-06T08:51:20.742Z,32.77
2019-04-06T08:53:50.149Z,30.03
2019-04-06T08:56:19.847Z,33.10
2019-04-06T08:58:49.252Z,41.97
2019-04-06T09:01:18.524Z,40.10
2019-04-06T09:03:47.830Z,33.07
2019-04-06T09:06:17.413Z,38.37
2019-04-06T09:08:46.715Z,41.13
2019-04-06T09:11:16.023Z,35.73
2019-04-06T09:13:45.331Z,38.30
2019-04-06T09:16:14.630Z,41.30
2019-04-06T09:18:44.015Z,35.03
2019-04-06T09:21:13.340Z,37.30
2019-04-06T09:23:42.693Z,32.50
2019-04-06T09:26:12.205Z,38.63
2019-04-06T09:28:41.606Z,37.77
2019-04-06T09:31:10.905Z,36.93
2019-04-06T09:33:40.201Z,36.20
2019-04-06T09:36:09.509Z,35.73
2019-04-06T09:38:38.786Z,41.10
2019-04-06T09:41:08.180Z,32.27
2019-04-06T09:43:37.666Z,41.37
2019-04-06T09:46:29.265Z,37.40
2019-04-06T09:49:26.536Z,41.73
2019-04-06T09:52:13.888Z,36.53
2019-04-06T09:55:02.170Z,41.70
2019-04-06T09:57:53.682Z,39.40
2019-04-06T10:00:47.966Z,37.90
2019-04-06T10:03:32.650Z,40.77
2019-04-06T10:06:12.897Z,36.33
2019-04-06T10:09:07.502Z,40.70
2019-04-06T10:11:45.360Z,39.83
2019-04-06T10:14:32.109Z,37.43
2019-04-06T10:17:23.188Z,39.80
2019-04-06T10:20:23.922Z,38.47
2019-04-06T10:23:16.164Z,37.40
2019-04-06T10:25:56.197Z,38.50
2019-04-06T10:28:43.291Z,38.13
2019-04-06T10:31:29.459Z,36.27
2019-04-06T10:34:17.096Z,36.90
2019-04-06T10:37:08.188Z,34.83
2019-04-06T10:39:45.083Z,33.73
2019-04-06T10:42:32.230Z,35.37
2019-04-06T10:45:26.431Z,37.43
2019-04-06T10:48:03.476Z,35.57
2019-04-06T10:50:50.435Z,35.33
2019-04-06T10:53:38.090Z,41.27
2019-04-06T10:56:18.841Z,34.10
2019-04-06T10:59:12.890Z,37.37
2019-04-06T11:02:04.269Z,31.70
2019-04-06T11:04:47.123Z,32.23
2019-04-06T11:07:24.397Z,37.63
2019-04-06T11:10:06.883Z,34.57
2019-04-06T11:13:00.989Z,35.70
2019-04-06T11:15:52.408Z,31.67
2019-04-06T11:18:50.062Z,32.70
2019-04-06T11:21:38.451Z,35.50
2019-04-06T11:24:35.857Z,25.90
2019-04-06T11:27:36.573Z,20.43
2019-04-06T11:30:16.362Z,18.63
2019-04-06T11:33:07.608Z,19.93
2019-04-06T11:35:54.412Z,12.37
2019-04-06T11:38:34.225Z,17.73
2019-04-06T11:41:28.308Z,15.77
2019-04-06T11:44:18.809Z,17.73
2019-04-06T11:47:05.996Z,15.70
2019-04-06T11:50:00.353Z,15.50
2019-04-06T11:52:45.977Z,16.10
2019-04-06T11:55:32.657Z,15.80
2019-04-06T11:58:26.988Z,16.83
2019-04-06T12:01:21.104Z,16.53
2019-04-06T12:04:27.707Z,18.80
2019-04-06T12:07:28.216Z,17.00
2019-04-06T12:10:31.543Z,18.90
2019-04-06T12:13:19.364Z,18.33
2019-04-06T12:16:07.956Z,19.87
2019-04-06T12:18:59.296Z,18.90
2019-04-06T12:21:40.521Z,16.27
2019-04-06T12:24:27.457Z,19.60
2019-04-06T12:27:22.350Z,19.23
2019-04-06T12:30:16.608Z,19.27
2019-04-06T12:33:14.056Z,19.07
2019-04-06T12:35:55.992Z,18.00
2019-04-06T12:38:34.103Z,18.27
2019-04-06T12:41:22.685Z,17.67
2019-04-06T12:44:09.802Z,15.77
2019-04-06T12:47:00.354Z,19.63
2019-04-06T12:49:47.224Z,21.13
2019-04-06T12:52:23.277Z,13.03
2019-04-06T12:55:07.365Z,18.40
2019-04-06T12:57:54.125Z,16.53
2019-04-06T13:00:52.782Z,11.80
2019-04-06T13:03:27.657Z,14.73
2019-04-06T13:06:03.594Z,15.87
2019-04-06T13:08:58.333Z,14.10
2019-04-06T13:11:58.416Z,12.33
2019-04-06T13:14:55.713Z,11.20
2019-04-06T13:17:49.000Z,14.80
2019-04-06T13:20:37.632Z,14.20
2019-04-06T13:23:24.204Z,12.93
2019-04-06T13:26:04.587Z,13.23
2019-04-06T13:29:08.406Z,12.77
2019-04-06T13:31:56.694Z,13.57
2019-04-06T13:34:33.887Z,14.13
2019-04-06T13:37:24.950Z,12.70
2019-04-06T13:40:13.218Z,12.63
2019-04-06T13:43:13.905Z,12.33
2019-04-06T13:46:05.835Z,13.80
2019-04-06T13:48:48.327Z,13.23
2019-04-06T13:51:28.596Z,13.53
2019-04-06T13:54:19.902Z,12.77
2019-04-06T13:57:08.164Z,14.37
2019-04-06T13:59:49.127Z,13.53
2019-04-06T14:02:28.502Z,12.10
2019-04-06T14:05:05.118Z,13.53
2019-04-06T14:07:50.378Z,13.17
2019-04-06T14:10:30.282Z,13.43
2019-04-06T14:13:08.938Z,13.40
2019-04-06T14:16:09.404Z,13.67
2019-04-06T14:19:07.165Z,12.30
2019-04-06T14:21:53.947Z,11.23
2019-04-06T14:24:40.033Z,9.57
2019-04-06T14:27:16.236Z,11.83
2019-04-06T14:30:01.675Z,12.07
2019-04-06T14:32:59.192Z,11.57
2019-04-06T14:35:50.253Z,12.13
2019-04-06T14:38:36.935Z,13.00
2019-04-06T14:41:43.244Z,10.60
2019-04-06T14:44:32.860Z,12.67
2019-04-06T14:47:09.629Z,12.83
2019-04-06T14:49:51.047Z,12.83
2019-04-06T14:52:31.884Z,12.30
2019-04-06T14:55:16.764Z,12.07
2019-04-06T14:58:11.450Z,12.00
2019-04-06T15:01:03.076Z,12.50
2019-04-06T15:04:00.110Z,10.67
2019-04-06T15:06:41.981Z,12.30
2019-04-06T15:09:28.971Z,11.13
2019-04-06T15:12:17.244Z,11.33
2019-04-06T15:15:11.760Z,11.17
2019-04-06T15:18:09.529Z,10.20
2019-04-06T15:20:53.990Z,11.87
2019-04-06T15:23:40.120Z,11.13
2019-04-06T15:26:20.710Z,12.67
2019-04-06T15:29:08.054Z,10.33
2019-04-06T15:31:56.487Z,10.73
2019-04-06T15:34:40.878Z,12.63
2019-04-06T15:37:32.058Z,10.17
2019-04-06T15:40:18.799Z,11.83
2019-04-06T15:42:57.511Z,9.77
2019-04-06T15:45:44.373Z,11.70
2019-04-06T15:48:36.484Z,11.40
2019-04-06T15:51:06.495Z,10.77
2019-04-06T15:53:42.727Z,10.97
2019-04-06T15:56:17.150Z,8.50
2019-04-06T15:59:05.567Z,10.03
2019-04-06T16:01:47.336Z,8.53
2019-04-06T16:04:41.454Z,11.13
2019-04-06T16:07:32.484Z,8.33
2019-04-06T16:10:21.135Z,10.87
2019-04-06T16:13:07.040Z,7.77
2019-04-06T16:15:43.099Z,11.67
2019-04-06T16:18:40.156Z,11.53
2019-04-06T16:21:26.808Z,7.67
2019-04-06T16:24:15.046Z,8.43
2019-04-06T16:27:06.224Z,9.67
2019-04-06T16:30:03.728Z,6.67
2019-04-06T16:32:55.776Z,11.10
2019-04-06T16:35:50.111Z,10.63
2019-04-06T16:38:32.894Z,11.03
2019-04-06T16:41:23.350Z,11.17
2019-04-06T16:44:06.225Z,11.10
2019-04-06T16:46:54.735Z,10.30
2019-04-06T16:49:55.267Z,10.70
2019-04-06T16:52:41.913Z,11.17
2019-04-06T16:55:28.966Z,12.20
2019-04-06T16:58:20.444Z,11.87
2019-04-06T17:01:11.387Z,10.83
2019-04-06T17:04:00.349Z,11.17
2019-04-06T17:06:54.773Z,12.23
2019-04-06T17:09:43.266Z,14.17
2019-04-06T17:12:29.954Z,12.97
2019-04-06T17:15:21.281Z,14.33
2019-04-06T17:18:07.343Z,16.70
2019-04-06T17:20:57.082Z,15.73
2019-04-06T17:23:34.504Z,15.10
2019-04-06T17:26:31.655Z,16.67
2019-04-06T17:29:34.820Z,13.27
2019-04-06T17:32:11.104Z,14.87
2019-04-06T17:35:02.720Z,16.43
2019-04-06T17:37:54.311Z,13.53
2019-04-06T17:40:38.945Z,15.40
2019-04-06T17:43:42.088Z,11.97
2019-04-06T17:46:29.045Z,10.77
2019-04-06T17:49:29.668Z,14.23
2019-04-06T17:52:08.701Z,12.63
2019-04-06T17:55:03.031Z,9.30
2019-04-06T17:57:40.211Z,8.20
2019-04-06T18:00:26.307Z,10.97
2019-04-06T18:03:05.247Z,14.57
2019-04-06T18:05:52.194Z,16.03
2019-04-06T18:08:40.556Z,14.53
2019-04-06T18:11:22.582Z,13.80
2019-04-06T18:13:52.461Z,9.50
2019-04-06T18:16:24.463Z,9.40
2019-04-06T18:18:53.933Z,8.63
2019-04-06T18:21:23.594Z,9.73
2019-04-06T18:23:53.094Z,15.97
2019-04-06T18:26:22.463Z,16.33
2019-04-06T18:28:51.926Z,13.17
2019-04-06T18:31:31.721Z,10.20
2019-04-06T18:34:01.456Z,13.27
2019-04-06T18:36:46.089Z,11.83
2019-04-06T18:39:15.450Z,8.70
2019-04-06T18:41:44.797Z,13.30
2019-04-06T18:44:14.146Z,8.57
2019-04-06T18:46:43.853Z,10.73
2019-04-06T18:49:13.326Z,8.23
2019-04-06T18:51:42.724Z,9.00
2019-04-06T18:54:12.395Z,9.73
2019-04-06T18:56:41.770Z,12.70
2019-04-06T18:59:10.984Z,13.30
2019-04-06T19:01:40.418Z,13.03
2019-04-06T19:04:10.372Z,11.40
2019-04-06T19:06:39.858Z,10.00
2019-04-06T19:09:20.702Z,8.80
2019-04-06T19:11:44.476Z,16.20
2019-04-06T19:14:12.446Z,10.60
2019-04-06T19:16:42.156Z,13.77
2019-04-06T19:19:11.470Z,15.20
2019-04-06T19:21:40.961Z,11.50
2019-04-06T19:24:10.342Z,10.57
2019-04-06T19:26:40.091Z,10.63
2019-04-06T19:29:09.464Z,12.10
2019-04-06T19:31:38.711Z,11.97
2019-04-06T19:34:07.941Z,9.97
2019-04-06T19:36:37.861Z,9.73
2019-04-06T19:39:11.093Z,12.10
2019-04-06T19:41:40.722Z,11.97
2019-04-06T19:44:10.251Z,11.27
2019-04-06T19:46:39.729Z,8.90
2019-04-06T19:49:09.041Z,16.10
2019-04-06T19:51:38.563Z,13.70
2019-04-06T19:54:08.334Z,10.97
2019-04-06T19:56:37.695Z,24.97
2019-04-06T19:59:07.031Z,25.30
2019-04-06T20:01:36.405Z,21.47
2019-04-06T20:04:06.099Z,26.27
2019-04-06T20:06:35.518Z,29.33
2019-04-06T20:09:06.816Z,29.87
2019-04-06T20:11:36.377Z,27.90
2019-04-06T20:14:06.176Z,26.77
2019-04-06T20:16:35.696Z,25.77
2019-04-06T20:19:05.146Z,19.43
2019-04-06T20:21:34.685Z,15.83
2019-04-06T20:24:04.170Z,17.13
2019-04-06T20:26:33.525Z,16.83
2019-04-06T20:29:02.913Z,15.70
2019-04-06T20:31:32.379Z,12.37
2019-04-06T20:34:01.895Z,17.53
2019-04-06T20:36:31.620Z,16.43
2019-04-06T20:39:01.239Z,12.53
2019-04-06T20:41:30.613Z,12.83
2019-04-06T20:43:59.945Z,14.17
2019-04-06T20:46:29.780Z,10.77
2019-04-06T20:48:59.276Z,15.47
2019-04-06T20:51:29.126Z,19.27
2019-04-06T20:53:58.696Z,17.90
2019-04-06T20:56:28.292Z,17.70
2019-04-06T20:58:57.870Z,16.60
2019-04-06T21:01:27.681Z,13.50
2019-04-06T21:04:00.828Z,15.80
2019-04-06T21:06:28.415Z,13.10
2019-04-06T21:08:57.732Z,11.40
2019-04-06T21:11:27.045Z,16.93
2019-04-06T21:13:56.748Z,12.50
2019-04-06T21:16:26.563Z,16.97
2019-04-06T21:18:55.836Z,14.17
2019-04-06T21:21:25.891Z,11.10
2019-04-06T21:23:55.306Z,11.30
2019-04-06T21:26:24.735Z,15.20
2019-04-06T21:28:54.277Z,14.63
2019-04-06T21:31:24.164Z,18.80
2019-04-06T21:33:53.790Z,22.60
2019-04-06T21:36:23.132Z,22.47
2019-04-06T21:38:52.454Z,20.60
2019-04-06T21:41:21.861Z,26.83
2019-04-06T21:43:51.192Z,28.83
2019-04-06T21:46:20.582Z,17.47
2019-04-06T21:48:50.648Z,18.53
2019-04-06T21:51:20.284Z,13.93
2019-04-06T21:53:49.603Z,14.17
2019-04-06T21:56:19.149Z,18.20
2019-04-06T21:58:48.562Z,17.00
2019-04-06T22:01:19.553Z,18.13
2019-04-06T22:03:49.565Z,14.07
2019-04-06T22:06:19.375Z,27.20
2019-04-06T22:08:48.799Z,20.70
2019-04-06T22:11:18.555Z,14.70
2019-04-06T22:13:48.675Z,22.07
2019-04-06T22:16:18.778Z,21.87
2019-04-06T22:18:48.773Z,17.27
2019-04-06T22:21:18.153Z,19.00
2019-04-06T22:23:47.500Z,19.73
2019-04-06T22:26:17.125Z,15.23
2019-04-06T22:28:46.866Z,18.67
2019-04-06T22:31:16.472Z,13.27
2019-04-06T22:33:45.948Z,24.67
2019-04-06T22:36:15.232Z,17.67
2019-04-06T22:38:44.542Z,19.33
2019-04-06T22:41:14.048Z,25.27
2019-04-06T22:43:43.645Z,20.87
2019-04-06T22:46:13.561Z,20.83
2019-04-06T22:48:44.202Z,13.83
2019-04-06T22:51:13.866Z,14.17
2019-04-06T22:53:43.181Z,20.13
2019-04-06T22:56:12.652Z,16.80
2019-04-06T22:58:41.951Z,23.07
2019-04-06T23:01:13.445Z,26.07
2019-04-06T23:04:04.772Z,25.63
2019-04-06T23:06:38.085Z,28.17
2019-04-06T23:09:08.661Z,33.83
2019-04-06T23:11:38.374Z,27.23
2019-04-06T23:14:07.758Z,26.17
2019-04-06T23:16:37.131Z,24.23
2019-04-06T23:19:06.365Z,17.57
2019-04-06T23:21:36.176Z,17.03
2019-04-06T23:24:05.595Z,14.73
2019-04-06T23:26:34.923Z,17.47
2019-04-06T23:29:04.202Z,15.20
2019-04-06T23:31:33.535Z,29.47
2019-04-06T23:34:03.393Z,28.93
2019-04-06T23:36:32.985Z,29.23
2019-04-06T23:39:02.505Z,25.67
2019-04-06T23:41:32.269Z,22.80
2019-04-06T23:44:01.567Z,35.43
2019-04-06T23:46:30.932Z,27.30
2019-04-06T23:49:02.416Z,25.33
2019-04-06T23:51:31.418Z,25.80
2019-04-06T23:54:00.895Z,20.03
2019-04-06T23:56:30.161Z,18.23
2019-04-06T23:58:59.365Z,22.23
